Hauptseite
METAR-TAF:

METAR-TAF

Flughäfen :

Berlin, Deutschland

Flughafen Berlin-Tegel

Breite: 52-34N, Länge: 013-19E, Höhe: 37 m

Beobachtung

Neuester Wetterbericht von vor 19 Minuten, um 00:20 UTC
Windstille
Temperatur 4°C
Luftfeuchtigkeit 75%
Luftdruck 1014 hPa
Sichtweite 10 km oder mehr
keine Wolken unter 1500 m und keine Kumulonimbus oder Gewitterwolken

METAR: EDDT 280020Z 00000KT CAVOK 04/00 Q1014

Zeit: 02:39 (00:39 UTC)

Prognose

Neuester Wetterbericht von vor 1 Stunde und 39 Minuten, um 23:00 UTC
Gültige Prognose vom 28 um 00 UTC bis 28 um 24 UTC
Wind 3 kt aus unterschiedlichen Richtungen
Sichtweite 10 km oder mehr
keine Wolken unter 1500 m und keine Kumulonimbus oder Gewitterwolken

TAF: EDDT 272300Z 2800/2824 VRB03KT CAVOK

Wetterbeobachtungen und Prognosen von mehr als 4000 Flughäfen (METAR und TAF Bericht).

Die verfügbaren Stationen werden durch gelbe und rote Markierungen auf der Karte dargestellt.

Führen Sie die Maus auf sie, um den Namen der Station zu sehen.

Darauf klicken, um die Beobachtung von Wetterbeobachtungen und Prognosen zu sehen.

Um die Karte zu ändern : klicken Sie auf den grünen Tasten mit einem schwarzen Kreuz Zum Vergrößern, auf den grünen Button mit einem Gedankenstrich zu verkleinern, oder auf die grünen Pfeile für benachbarte Karten.


METAR-TAF: